KLWB/LWB METAR and TAF weather

Enter ICAO airport designator
Station Type Date Time Source
KLWB METAR 2022/01/27 23:50 UTC NOAA

KLWB 272350Z 00000KT 10SM SCT0060 M01/M10 A3015


Station Type Date Time Source
KLWB Decoded METAR 2022/01/27 23:50 UTC NOAA

Lewisburg / Greenbrier, WV, United States (KLWB) 37-52N 080-24W
Jan 27, 2022 - 06:50 PM EST / 2022.01.27 2350 UTC
Wind: Calm:0
Visibility: 10 mile(s):0
Sky conditions: partly cloudy
Temperature: 30 F (-1 C)
Dew Point: 14 F (-10 C)
Relative Humidity: 50%
Pressure (altimeter): 30.15 in. Hg (1020 hPa)
ob: KLWB 272350Z 00000KT 10SM SCT0060 M01/M10 A3015
cycle: 0

Station Type Date Time Source
KLWB TAF 2022/01/27 18:33 UTC NOAA

TAF KLWB 271730Z 2718/2818 00000KT P6SM SKC
FM280000 31003KT P6SM BKN100
FM280800 VRB02KT P6SM OVC050
FM281600 26003KT P6SM OVC025

Example: see airport list